sensor_id;sensor_type;location;lat;lon;timestamp;pressure;altitude;pressure_sealevel;temperature;humidity
19884;BME280;10104;50.732;10.174;2023-02-20T00:01:49;98734.94;;;7.08;100.00
19884;BME280;10104;50.732;10.174;2023-02-20T00:04:11;98732.06;;;7.02;100.00
19884;BME280;10104;50.732;10.174;2023-02-20T00:06:32;98729.44;;;7.02;100.00
19884;BME280;10104;50.732;10.174;2023-02-20T00:08:54;98735.81;;;6.99;100.00
19884;BME280;10104;50.732;10.174;2023-02-20T00:11:15;98731.22;;;7.01;100.00
19884;BME280;10104;50.732;10.174;2023-02-20T00:13:44;98738.44;;;6.99;100.00
19884;BME280;10104;50.732;10.174;2023-02-20T00:16:06;98744.66;;;6.98;100.00
19884;BME280;10104;50.732;10.174;2023-02-20T00:18:27;98745.75;;;7.05;100.00
19884;BME280;10104;50.732;10.174;2023-02-20T00:20:49;98739.91;;;7.11;100.00
19884;BME280;10104;50.732;10.174;2023-02-20T00:23:10;98738.25;;;7.10;100.00
19884;BME280;10104;50.732;10.174;2023-02-20T00:25:32;98729.75;;;7.16;100.00
19884;BME280;10104;50.732;10.174;2023-02-20T00:27:53;98727.53;;;7.21;99.92
19884;BME280;10104;50.732;10.174;2023-02-20T00:30:21;98727.09;;;7.26;99.98
19884;BME280;10104;50.732;10.174;2023-02-20T00:32:43;98734.44;;;7.22;100.00
19884;BME280;10104;50.732;10.174;2023-02-20T00:35:04;98731.91;;;7.30;100.00
19884;BME280;10104;50.732;10.174;2023-02-20T00:37:26;98731.44;;;7.45;98.94
19884;BME280;10104;50.732;10.174;2023-02-20T00:39:47;98728.25;;;7.41;98.15
19884;BME280;10104;50.732;10.174;2023-02-20T00:42:09;98726.38;;;7.34;99.36
19884;BME280;10104;50.732;10.174;2023-02-20T00:44:30;98721.50;;;7.29;99.97
19884;BME280;10104;50.732;10.174;2023-02-20T00:46:52;98721.28;;;7.22;100.00
19884;BME280;10104;50.732;10.174;2023-02-20T00:49:13;98717.25;;;7.28;99.92
19884;BME280;10104;50.732;10.174;2023-02-20T00:51:35;98720.47;;;7.22;100.00
19884;BME280;10104;50.732;10.174;2023-02-20T00:53:57;98717.84;;;7.22;99.38
19884;BME280;10104;50.732;10.174;2023-02-20T00:56:18;98718.56;;;7.14;98.09
19884;BME280;10104;50.732;10.174;2023-02-20T00:58:40;98718.50;;;6.97;99.79
19884;BME280;10104;50.732;10.174;2023-02-20T01:01:02;98724.09;;;6.84;100.00
19884;BME280;10104;50.732;10.174;2023-02-20T01:03:23;98735.84;;;6.80;100.00
19884;BME280;10104;50.732;10.174;2023-02-20T01:05:45;98731.47;;;6.71;100.00
19884;BME280;10104;50.732;10.174;2023-02-20T01:08:06;98724.38;;;6.81;100.00
19884;BME280;10104;50.732;10.174;2023-02-20T01:10:28;98721.88;;;6.79;99.69
19884;BME280;10104;50.732;10.174;2023-02-20T01:12:49;98731.34;;;6.72;99.62
19884;BME280;10104;50.732;10.174;2023-02-20T01:15:11;98725.81;;;6.66;100.00
19884;BME280;10104;50.732;10.174;2023-02-20T01:17:34;98732.03;;;6.65;100.00
19884;BME280;10104;50.732;10.174;2023-02-20T01:19:56;98722.59;;;6.72;100.00
19884;BME280;10104;50.732;10.174;2023-02-20T01:22:17;98729.94;;;6.78;98.68
19884;BME280;10104;50.732;10.174;2023-02-20T01:24:39;98728.84;;;6.71;99.36
19884;BME280;10104;50.732;10.174;2023-02-20T01:27:00;98724.28;;;6.63;99.16
19884;BME280;10104;50.732;10.174;2023-02-20T01:29:22;98728.56;;;6.64;100.00
19884;BME280;10104;50.732;10.174;2023-02-20T01:31:50;98722.88;;;6.69;99.21
19884;BME280;10104;50.732;10.174;2023-02-20T01:34:12;98710.16;;;6.64;98.84
19884;BME280;10104;50.732;10.174;2023-02-20T01:36:34;98722.34;;;6.65;99.41
19884;BME280;10104;50.732;10.174;2023-02-20T01:38:56;98725.94;;;6.55;97.29
19884;BME280;10104;50.732;10.174;2023-02-20T01:41:18;98721.66;;;6.63;96.96
19884;BME280;10104;50.732;10.174;2023-02-20T01:43:40;98718.31;;;6.61;98.08
19884;BME280;10104;50.732;10.174;2023-02-20T01:46:45;98722.34;;;6.56;96.36
19884;BME280;10104;50.732;10.174;2023-02-20T01:49:13;98713.19;;;6.69;97.04
19884;BME280;10104;50.732;10.174;2023-02-20T01:51:42;98702.41;;;6.63;94.65
19884;BME280;10104;50.732;10.174;2023-02-20T01:54:07;98700.16;;;6.77;94.09
19884;BME280;10104;50.732;10.174;2023-02-20T01:56:29;98692.00;;;6.71;93.37
19884;BME280;10104;50.732;10.174;2023-02-20T01:58:51;98693.81;;;6.61;94.40
19884;BME280;10104;50.732;10.174;2023-02-20T02:01:12;98697.44;;;6.60;94.16
19884;BME280;10104;50.732;10.174;2023-02-20T02:03:36;98696.03;;;6.65;94.16
19884;BME280;10104;50.732;10.174;2023-02-20T02:06:04;98682.69;;;6.76;94.51
19884;BME280;10104;50.732;10.174;2023-02-20T02:11:35;98687.31;;;6.55;94.14
19884;BME280;10104;50.732;10.174;2023-02-20T02:13:57;98679.56;;;6.63;94.25
19884;BME280;10104;50.732;10.174;2023-02-20T02:32:40;98681.97;;;6.47;96.05
19884;BME280;10104;50.732;10.174;2023-02-20T02:35:19;98690.13;;;6.44;95.51
19884;BME280;10104;50.732;10.174;2023-02-20T02:40:26;98683.25;;;6.33;96.38
19884;BME280;10104;50.732;10.174;2023-02-20T02:42:53;98685.88;;;6.33;96.99
19884;BME280;10104;50.732;10.174;2023-02-20T02:47:54;98683.19;;;6.53;95.93
19884;BME280;10104;50.732;10.174;2023-02-20T02:50:30;98666.72;;;6.50;95.36
19884;BME280;10104;50.732;10.174;2023-02-20T02:52:52;98674.47;;;6.52;95.69
19884;BME280;10104;50.732;10.174;2023-02-20T02:55:19;98664.06;;;6.50;95.32
19884;BME280;10104;50.732;10.174;2023-02-20T02:57:41;98652.28;;;6.55;95.71
19884;BME280;10104;50.732;10.174;2023-02-20T03:02:35;98657.13;;;6.59;95.47
19884;BME280;10104;50.732;10.174;2023-02-20T03:05:03;98643.72;;;6.53;96.63
19884;BME280;10104;50.732;10.174;2023-02-20T03:07:26;98653.84;;;6.47;96.55
19884;BME280;10104;50.732;10.174;2023-02-20T03:09:51;98650.81;;;6.42;98.44
19884;BME280;10104;50.732;10.174;2023-02-20T03:12:15;98649.56;;;6.37;97.61
19884;BME280;10104;50.732;10.174;2023-02-20T03:14:43;98639.22;;;6.35;97.91
19884;BME280;10104;50.732;10.174;2023-02-20T03:17:30;98659.44;;;6.25;99.39
19884;BME280;10104;50.732;10.174;2023-02-20T03:19:55;98651.69;;;6.24;99.10
19884;BME280;10104;50.732;10.174;2023-02-20T03:22:23;98665.97;;;6.21;99.78
19884;BME280;10104;50.732;10.174;2023-02-20T03:24:49;98664.69;;;6.25;100.00
19884;BME280;10104;50.732;10.174;2023-02-20T03:27:17;98672.19;;;6.20;99.89
19884;BME280;10104;50.732;10.174;2023-02-20T03:29:39;98668.31;;;6.15;100.00
19884;BME280;10104;50.732;10.174;2023-02-20T03:32:04;98667.63;;;6.22;100.00
19884;BME280;10104;50.732;10.174;2023-02-20T03:34:47;98650.19;;;6.21;100.00
19884;BME280;10104;50.732;10.174;2023-02-20T03:37:30;98644.53;;;6.16;100.00
19884;BME280;10104;50.732;10.174;2023-02-20T03:40:14;98636.06;;;6.22;100.00
19884;BME280;10104;50.732;10.174;2023-02-20T03:42:58;98639.09;;;6.27;100.00
19884;BME280;10104;50.732;10.174;2023-02-20T03:45:41;98639.94;;;6.28;100.00
19884;BME280;10104;50.732;10.174;2023-02-20T03:48:09;98640.50;;;6.22;100.00
19884;BME280;10104;50.732;10.174;2023-02-20T03:50:32;98642.44;;;6.29;100.00
19884;BME280;10104;50.732;10.174;2023-02-20T03:53:13;98639.66;;;6.21;100.00
19884;BME280;10104;50.732;10.174;2023-02-20T03:55:35;98643.56;;;6.17;100.00
19884;BME280;10104;50.732;10.174;2023-02-20T03:57:59;98642.44;;;6.20;100.00
19884;BME280;10104;50.732;10.174;2023-02-20T04:00:37;98643.69;;;6.16;99.70
19884;BME280;10104;50.732;10.174;2023-02-20T04:03:07;98657.50;;;6.27;100.00
19884;BME280;10104;50.732;10.174;2023-02-20T04:05:36;98658.22;;;6.20;100.00
19884;BME280;10104;50.732;10.174;2023-02-20T04:10:32;98641.91;;;6.06;100.00
19884;BME280;10104;50.732;10.174;2023-02-20T04:12:57;98640.78;;;5.99;100.00
19884;BME280;10104;50.732;10.174;2023-02-20T04:15:19;98644.13;;;6.01;100.00
19884;BME280;10104;50.732;10.174;2023-02-20T04:17:46;98639.28;;;6.16;100.00
19884;BME280;10104;50.732;10.174;2023-02-20T04:20:09;98640.78;;;6.19;99.59
19884;BME280;10104;50.732;10.174;2023-02-20T04:22:34;98642.59;;;6.08;100.00
19884;BME280;10104;50.732;10.174;2023-02-20T04:25:00;98644.81;;;6.03;100.00
19884;BME280;10104;50.732;10.174;2023-02-20T04:27:24;98639.97;;;5.99;100.00
19884;BME280;10104;50.732;10.174;2023-02-20T04:29:46;98639.97;;;5.99;100.00
19884;BME280;10104;50.732;10.174;2023-02-20T04:32:08;98657.97;;;5.94;100.00
19884;BME280;10104;50.732;10.174;2023-02-20T04:34:29;98662.81;;;5.98;100.00
19884;BME280;10104;50.732;10.174;2023-02-20T04:37:08;98663.50;;;6.00;100.00
19884;BME280;10104;50.732;10.174;2023-02-20T04:39:30;98670.28;;;5.93;100.00
19884;BME280;10104;50.732;10.174;2023-02-20T04:41:51;98669.03;;;5.97;100.00
19884;BME280;10104;50.732;10.174;2023-02-20T04:44:13;98660.47;;;5.95;100.00
19884;BME280;10104;50.732;10.174;2023-02-20T04:46:52;98662.09;;;6.06;100.00
19884;BME280;10104;50.732;10.174;2023-02-20T04:49:14;98641.50;;;6.01;100.00
19884;BME280;10104;50.732;10.174;2023-02-20T04:51:35;98643.84;;;6.04;100.00
19884;BME280;10104;50.732;10.174;2023-02-20T04:53:57;98636.25;;;6.01;100.00
19884;BME280;10104;50.732;10.174;2023-02-20T04:56:18;98652.44;;;5.97;100.00
19884;BME280;10104;50.732;10.174;2023-02-20T04:58:45;98650.50;;;5.89;100.00
19884;BME280;10104;50.732;10.174;2023-02-20T05:01:07;98654.50;;;5.93;100.00
19884;BME280;10104;50.732;10.174;2023-02-20T05:03:28;98653.13;;;5.89;100.00
19884;BME280;10104;50.732;10.174;2023-02-20T05:05:50;98641.78;;;5.98;100.00
19884;BME280;10104;50.732;10.174;2023-02-20T05:08:11;98635.72;;;5.98;100.00
19884;BME280;10104;50.732;10.174;2023-02-20T05:10:34;98633.34;;;6.04;100.00
19884;BME280;10104;50.732;10.174;2023-02-20T05:12:56;98624.91;;;6.01;100.00
19884;BME280;10104;50.732;10.174;2023-02-20T05:15:19;98631.13;;;6.00;100.00
19884;BME280;10104;50.732;10.174;2023-02-20T05:17:40;98625.19;;;5.98;100.00
19884;BME280;10104;50.732;10.174;2023-02-20T05:20:04;98631.28;;;5.98;100.00
19884;BME280;10104;50.732;10.174;2023-02-20T05:22:25;98631.28;;;5.98;100.00
19884;BME280;10104;50.732;10.174;2023-02-20T05:24:49;98635.97;;;6.04;100.00
19884;BME280;10104;50.732;10.174;2023-02-20T05:27:13;98639.13;;;6.08;100.00
19884;BME280;10104;50.732;10.174;2023-02-20T05:29:35;98640.25;;;6.15;99.96
19884;BME280;10104;50.732;10.174;2023-02-20T05:31:56;98627.22;;;6.14;100.00
19884;BME280;10104;50.732;10.174;2023-02-20T05:34:18;98617.97;;;6.09;100.00
19884;BME280;10104;50.732;10.174;2023-02-20T05:36:41;98629.44;;;6.08;99.48
19884;BME280;10104;50.732;10.174;2023-02-20T05:39:03;98627.78;;;6.07;99.92
19884;BME280;10104;50.732;10.174;2023-02-20T05:41:25;98617.28;;;6.07;100.00
19884;BME280;10104;50.732;10.174;2023-02-20T05:43:47;98621.13;;;6.13;98.95
19884;BME280;10104;50.732;10.174;2023-02-20T05:46:08;98608.69;;;6.15;99.41
19884;BME280;10104;50.732;10.174;2023-02-20T05:48:30;98592.91;;;6.15;99.26
19884;BME280;10104;50.732;10.174;2023-02-20T05:50:52;98590.97;;;6.17;99.07
19884;BME280;10104;50.732;10.174;2023-02-20T05:53:15;98585.94;;;6.24;98.78
19884;BME280;10104;50.732;10.174;2023-02-20T05:55:36;98580.53;;;6.35;97.21
19884;BME280;10104;50.732;10.174;2023-02-20T05:57:58;98574.47;;;6.25;98.06
19884;BME280;10104;50.732;10.174;2023-02-20T06:00:19;98576.81;;;6.28;97.14
19884;BME280;10104;50.732;10.174;2023-02-20T06:02:41;98578.19;;;6.32;96.85
19884;BME280;10104;50.732;10.174;2023-02-20T06:05:03;98565.28;;;6.38;97.49
19884;BME280;10104;50.732;10.174;2023-02-20T06:07:25;98568.41;;;6.52;97.08
19884;BME280;10104;50.732;10.174;2023-02-20T06:09:47;98563.47;;;6.39;97.38
19884;BME280;10104;50.732;10.174;2023-02-20T06:12:10;98571.13;;;6.32;97.95
19884;BME280;10104;50.732;10.174;2023-02-20T06:14:31;98573.63;;;6.24;98.90
19884;BME280;10104;50.732;10.174;2023-02-20T06:16:55;98576.91;;;6.36;98.56
19884;BME280;10104;50.732;10.174;2023-02-20T06:19:22;98557.91;;;6.42;98.23
19884;BME280;10104;50.732;10.174;2023-02-20T06:21:45;98568.59;;;6.40;97.55
19884;BME280;10104;50.732;10.174;2023-02-20T06:24:06;98566.69;;;6.33;97.78
19884;BME280;10104;50.732;10.174;2023-02-20T06:26:28;98579.00;;;6.32;97.82
19884;BME280;10104;50.732;10.174;2023-02-20T06:28:49;98571.25;;;6.31;98.36
19884;BME280;10104;50.732;10.174;2023-02-20T06:31:11;98582.84;;;6.38;98.10
19884;BME280;10104;50.732;10.174;2023-02-20T06:33:32;98578.88;;;6.61;96.92
19884;BME280;10104;50.732;10.174;2023-02-20T06:35:54;98580.31;;;6.73;94.49
19884;BME280;10104;50.732;10.174;2023-02-20T06:38:16;98561.53;;;6.68;94.76
19884;BME280;10104;50.732;10.174;2023-02-20T06:40:38;98577.06;;;6.62;95.36
19884;BME280;10104;50.732;10.174;2023-02-20T06:43:00;98574.38;;;6.54;95.49
19884;BME280;10104;50.732;10.174;2023-02-20T06:45:21;98583.00;;;6.36;96.73
19884;BME280;10104;50.732;10.174;2023-02-20T06:47:43;98594.91;;;6.31;97.52
19884;BME280;10104;50.732;10.174;2023-02-20T06:50:04;98576.00;;;6.55;97.13
19884;BME280;10104;50.732;10.174;2023-02-20T06:52:26;98583.22;;;6.53;95.90
19884;BME280;10104;50.732;10.174;2023-02-20T06:54:47;98584.88;;;6.54;96.48
19884;BME280;10104;50.732;10.174;2023-02-20T06:57:09;98585.34;;;6.67;95.58
19884;BME280;10104;50.732;10.174;2023-02-20T06:59:31;98600.47;;;6.65;95.69
19884;BME280;10104;50.732;10.174;2023-02-20T07:01:52;98597.84;;;6.65;95.51
19884;BME280;10104;50.732;10.174;2023-02-20T07:04:16;98592.09;;;6.42;97.23
19884;BME280;10104;50.732;10.174;2023-02-20T07:06:38;98588.69;;;6.41;97.65
19884;BME280;10104;50.732;10.174;2023-02-20T07:09:00;98583.25;;;6.43;97.22
19884;BME280;10104;50.732;10.174;2023-02-20T07:11:22;98592.22;;;6.50;96.50
19884;BME280;10104;50.732;10.174;2023-02-20T07:13:44;98587.72;;;6.33;96.92
19884;BME280;10104;50.732;10.174;2023-02-20T07:16:06;98577.97;;;6.43;97.72
19884;BME280;10104;50.732;10.174;2023-02-20T07:18:27;98569.97;;;6.72;95.65
19884;BME280;10104;50.732;10.174;2023-02-20T07:20:53;98567.72;;;6.77;94.59
19884;BME280;10104;50.732;10.174;2023-02-20T07:23:15;98555.88;;;6.90;94.54
19884;BME280;10104;50.732;10.174;2023-02-20T07:25:37;98563.56;;;6.74;94.51
19884;BME280;10104;50.732;10.174;2023-02-20T07:27:59;98562.16;;;6.80;94.29
19884;BME280;10104;50.732;10.174;2023-02-20T07:30:20;98569.94;;;6.99;92.73
19884;BME280;10104;50.732;10.174;2023-02-20T07:32:45;98566.47;;;6.99;92.63
19884;BME280;10104;50.732;10.174;2023-02-20T07:35:06;98579.03;;;7.05;92.65
19884;BME280;10104;50.732;10.174;2023-02-20T07:37:29;98583.41;;;7.14;92.28
19884;BME280;10104;50.732;10.174;2023-02-20T07:39:51;98578.84;;;7.16;90.71
19884;BME280;10104;50.732;10.174;2023-02-20T07:42:12;98577.63;;;7.46;90.43
19884;BME280;10104;50.732;10.174;2023-02-20T07:44:34;98581.97;;;7.55;90.24
19884;BME280;10104;50.732;10.174;2023-02-20T07:46:56;98570.75;;;7.70;88.45
19884;BME280;10104;50.732;10.174;2023-02-20T07:49:17;98571.59;;;7.71;87.54
19884;BME280;10104;50.732;10.174;2023-02-20T07:51:39;98570.59;;;7.72;85.85
19884;BME280;10104;50.732;10.174;2023-02-20T07:54:02;98575.03;;;7.71;86.89
19884;BME280;10104;50.732;10.174;2023-02-20T07:56:23;98572.50;;;7.62;86.85
19884;BME280;10104;50.732;10.174;2023-02-20T07:58:45;98569.09;;;7.69;87.23
19884;BME280;10104;50.732;10.174;2023-02-20T08:01:06;98570.00;;;7.60;87.66
19884;BME280;10104;50.732;10.174;2023-02-20T08:03:28;98567.50;;;7.77;86.96
19884;BME280;10104;50.732;10.174;2023-02-20T08:05:49;98568.28;;;7.69;86.70
19884;BME280;10104;50.732;10.174;2023-02-20T08:08:11;98570.97;;;7.77;86.44
19884;BME280;10104;50.732;10.174;2023-02-20T08:10:32;98569.56;;;7.91;87.11
19884;BME280;10104;50.732;10.174;2023-02-20T08:12:55;98557.56;;;7.96;85.99
19884;BME280;10104;50.732;10.174;2023-02-20T08:15:18;98551.59;;;8.12;85.74
19884;BME280;10104;50.732;10.174;2023-02-20T08:17:39;98557.06;;;8.19;85.91
19884;BME280;10104;50.732;10.174;2023-02-20T08:20:07;98544.97;;;8.08;83.58
19884;BME280;10104;50.732;10.174;2023-02-20T08:22:29;98543.06;;;8.18;85.06
19884;BME280;10104;50.732;10.174;2023-02-20T08:25:02;98543.69;;;8.12;84.87
19884;BME280;10104;50.732;10.174;2023-02-20T08:27:25;98539.22;;;8.12;86.54
19884;BME280;10104;50.732;10.174;2023-02-20T08:29:47;98526.44;;;8.26;85.02
19884;BME280;10104;50.732;10.174;2023-02-20T08:32:09;98537.91;;;8.42;84.62
19884;BME280;10104;50.732;10.174;2023-02-20T08:34:30;98542.41;;;8.50;84.07
19884;BME280;10104;50.732;10.174;2023-02-20T08:36:52;98540.16;;;8.71;83.88
19884;BME280;10104;50.732;10.174;2023-02-20T08:39:13;98540.19;;;8.79;83.66
19884;BME280;10104;50.732;10.174;2023-02-20T08:41:41;98528.22;;;9.09;81.85
19884;BME280;10104;50.732;10.174;2023-02-20T08:44:03;98534.75;;;8.89;80.32
19884;BME280;10104;50.732;10.174;2023-02-20T08:46:24;98527.53;;;8.99;82.59
19884;BME280;10104;50.732;10.174;2023-02-20T08:48:46;98538.22;;;8.89;81.38
19884;BME280;10104;50.732;10.174;2023-02-20T08:51:07;98531.84;;;9.00;83.42
19884;BME280;10104;50.732;10.174;2023-02-20T08:53:29;98524.78;;;9.25;83.25
19884;BME280;10104;50.732;10.174;2023-02-20T08:55:51;98517.34;;;9.37;83.08
19884;BME280;10104;50.732;10.174;2023-02-20T08:58:13;98517.69;;;9.25;83.13
19884;BME280;10104;50.732;10.174;2023-02-20T09:00:34;98516.66;;;9.26;83.45
19884;BME280;10104;50.732;10.174;2023-02-20T09:02:56;98507.75;;;9.19;83.12
19884;BME280;10104;50.732;10.174;2023-02-20T09:05:17;98502.63;;;9.26;84.10
19884;BME280;10104;50.732;10.174;2023-02-20T09:07:39;98506.94;;;9.19;81.58
19884;BME280;10104;50.732;10.174;2023-02-20T09:10:00;98507.75;;;9.11;83.42
19884;BME280;10104;50.732;10.174;2023-02-20T09:12:22;98501.47;;;9.12;83.90
19884;BME280;10104;50.732;10.174;2023-02-20T09:14:44;98504.09;;;9.20;82.25
19884;BME280;10104;50.732;10.174;2023-02-20T09:17:06;98508.38;;;8.97;81.30
19884;BME280;10104;50.732;10.174;2023-02-20T09:19:27;98492.56;;;9.05;83.17
19884;BME280;10104;50.732;10.174;2023-02-20T09:21:49;98495.50;;;8.94;83.51
19884;BME280;10104;50.732;10.174;2023-02-20T09:24:10;98491.72;;;9.21;81.90
19884;BME280;10104;50.732;10.174;2023-02-20T09:26:32;98502.25;;;8.97;82.94
19884;BME280;10104;50.732;10.174;2023-02-20T09:28:53;98501.47;;;9.04;83.32
19884;BME280;10104;50.732;10.174;2023-02-20T09:31:15;98514.97;;;8.85;82.74
19884;BME280;10104;50.732;10.174;2023-02-20T09:33:36;98504.41;;;8.93;84.09
19884;BME280;10104;50.732;10.174;2023-02-20T09:35:58;98508.38;;;8.97;83.58
19884;BME280;10104;50.732;10.174;2023-02-20T09:38:20;98512.00;;;8.88;85.24
19884;BME280;10104;50.732;10.174;2023-02-20T09:40:45;98503.75;;;8.91;85.55
19884;BME280;10104;50.732;10.174;2023-02-20T09:45:38;98501.94;;;9.08;84.43
19884;BME280;10104;50.732;10.174;2023-02-20T09:48:31;98494.53;;;9.03;82.94
19884;BME280;10104;50.732;10.174;2023-02-20T09:50:55;98481.34;;;9.19;83.81
19884;BME280;10104;50.732;10.174;2023-02-20T09:53:38;98474.41;;;9.43;82.74
19884;BME280;10104;50.732;10.174;2023-02-20T09:56:03;98482.97;;;9.45;83.81
19884;BME280;10104;50.732;10.174;2023-02-20T10:00:59;98473.88;;;9.39;83.51
19884;BME280;10104;50.732;10.174;2023-02-20T10:03:35;98472.06;;;9.48;80.31
19884;BME280;10104;50.732;10.174;2023-02-20T10:06:03;98473.22;;;9.45;77.72
19884;BME280;10104;50.732;10.174;2023-02-20T10:08:34;98463.78;;;9.67;77.41
19884;BME280;10104;50.732;10.174;2023-02-20T10:10:59;98475.00;;;9.85;75.76
19884;BME280;10104;50.732;10.174;2023-02-20T10:13:39;98460.59;;;9.88;68.26
19884;BME280;10104;50.732;10.174;2023-02-20T10:16:27;98477.28;;;9.88;66.65
19884;BME280;10104;50.732;10.174;2023-02-20T10:27:09;98460.00;;;10.25;68.65
19884;BME280;10104;50.732;10.174;2023-02-20T10:29:36;98475.53;;;10.36;62.17
19884;BME280;10104;50.732;10.174;2023-02-20T10:32:14;98475.44;;;10.52;65.86
19884;BME280;10104;50.732;10.174;2023-02-20T10:34:44;98466.44;;;10.30;63.12
19884;BME280;10104;50.732;10.174;2023-02-20T10:37:14;98446.13;;;10.23;66.74
19884;BME280;10104;50.732;10.174;2023-02-20T10:39:40;98453.69;;;10.34;65.25
19884;BME280;10104;50.732;10.174;2023-02-20T10:42:15;98445.97;;;10.24;64.50
19884;BME280;10104;50.732;10.174;2023-02-20T10:44:59;98456.03;;;10.12;68.09
19884;BME280;10104;50.732;10.174;2023-02-20T10:50:28;98438.13;;;9.84;68.59
19884;BME280;10104;50.732;10.174;2023-02-20T10:52:57;98451.16;;;9.93;71.31
19884;BME280;10104;50.732;10.174;2023-02-20T10:58:12;98440.97;;;9.66;69.73
19884;BME280;10104;50.732;10.174;2023-02-20T11:00:42;98438.66;;;9.71;74.21
19884;BME280;10104;50.732;10.174;2023-02-20T11:03:11;98430.06;;;9.69;74.28
19884;BME280;10104;50.732;10.174;2023-02-20T11:05:40;98428.78;;;9.49;74.96
19884;BME280;10104;50.732;10.174;2023-02-20T11:08:03;98425.16;;;9.50;77.19
19884;BME280;10104;50.732;10.174;2023-02-20T11:10:24;98424.97;;;9.59;78.52
19884;BME280;10104;50.732;10.174;2023-02-20T11:12:56;98440.66;;;9.61;77.79
19884;BME280;10104;50.732;10.174;2023-02-20T11:15:24;98430.19;;;9.75;78.14
19884;BME280;10104;50.732;10.174;2023-02-20T11:17:48;98406.78;;;9.64;77.46
19884;BME280;10104;50.732;10.174;2023-02-20T11:23:07;98410.81;;;9.91;78.81
19884;BME280;10104;50.732;10.174;2023-02-20T11:25:37;98407.56;;;9.81;77.11
19884;BME280;10104;50.732;10.174;2023-02-20T11:28:17;98402.97;;;9.75;76.63
19884;BME280;10104;50.732;10.174;2023-02-20T11:30:43;98400.22;;;9.99;77.39
19884;BME280;10104;50.732;10.174;2023-02-20T11:33:13;98387.63;;;10.01;75.67
19884;BME280;10104;50.732;10.174;2023-02-20T11:35:40;98391.63;;;9.97;73.33
19884;BME280;10104;50.732;10.174;2023-02-20T11:40:38;98369.53;;;10.21;75.45
19884;BME280;10104;50.732;10.174;2023-02-20T11:43:18;98378.88;;;10.40;75.77
19884;BME280;10104;50.732;10.174;2023-02-20T11:45:41;98364.47;;;10.42;72.65
19884;BME280;10104;50.732;10.174;2023-02-20T11:48:10;98368.22;;;10.48;73.67
19884;BME280;10104;50.732;10.174;2023-02-20T11:50:44;98364.06;;;10.53;73.45
19884;BME280;10104;50.732;10.174;2023-02-20T11:53:17;98352.50;;;10.69;72.44
19884;BME280;10104;50.732;10.174;2023-02-20T11:55:39;98351.56;;;10.85;73.97
19884;BME280;10104;50.732;10.174;2023-02-20T11:58:04;98361.78;;;10.88;70.92
19884;BME280;10104;50.732;10.174;2023-02-20T12:00:46;98345.88;;;10.73;69.85
19884;BME280;10104;50.732;10.174;2023-02-20T12:05:44;98336.00;;;10.82;69.22
19884;BME280;10104;50.732;10.174;2023-02-20T12:08:30;98325.91;;;10.85;69.55
19884;BME280;10104;50.732;10.174;2023-02-20T12:10:57;98323.38;;;11.07;70.60
19884;BME280;10104;50.732;10.174;2023-02-20T12:13:21;98311.28;;;10.89;67.44
19884;BME280;10104;50.732;10.174;2023-02-20T12:15:50;98315.22;;;10.93;67.66
19884;BME280;10104;50.732;10.174;2023-02-20T12:18:39;98311.22;;;10.98;67.27
19884;BME280;10104;50.732;10.174;2023-02-20T12:21:26;98297.31;;;10.95;67.13
19884;BME280;10104;50.732;10.174;2023-02-20T12:26:55;98298.63;;;11.14;68.48
19884;BME280;10104;50.732;10.174;2023-02-20T12:32:29;98274.78;;;11.14;68.55
19884;BME280;10104;50.732;10.174;2023-02-20T12:38:11;98262.50;;;11.13;68.15
19884;BME280;10104;50.732;10.174;2023-02-20T12:40:51;98267.63;;;11.44;71.57
19884;BME280;10104;50.732;10.174;2023-02-20T12:43:37;98267.28;;;11.47;68.67
19884;BME280;10104;50.732;10.174;2023-02-20T12:52:01;98243.47;;;11.83;71.59
19884;BME280;10104;50.732;10.174;2023-02-20T12:54:21;98230.38;;;11.67;66.96
19884;BME280;10104;50.732;10.174;2023-02-20T12:57:24;98225.44;;;11.79;69.31
19884;BME280;10104;50.732;10.174;2023-02-20T13:00:03;98220.19;;;11.85;69.11
19884;BME280;10104;50.732;10.174;2023-02-20T13:02:39;98221.91;;;11.93;68.30
19884;BME280;10104;50.732;10.174;2023-02-20T13:05:06;98218.38;;;12.07;69.77
19884;BME280;10104;50.732;10.174;2023-02-20T13:07:42;98231.03;;;12.05;68.90
19884;BME280;10104;50.732;10.174;2023-02-20T13:12:31;98210.81;;;12.25;68.37
19884;BME280;10104;50.732;10.174;2023-02-20T13:18:03;98208.84;;;12.12;67.98
19884;BME280;10104;50.732;10.174;2023-02-20T13:20:30;98213.19;;;11.99;65.63
19884;BME280;10104;50.732;10.174;2023-02-20T13:25:39;98216.75;;;11.85;70.17
19884;BME280;10104;50.732;10.174;2023-02-20T13:28:33;98215.09;;;12.05;72.18
19884;BME280;10104;50.732;10.174;2023-02-20T13:31:07;98196.97;;;12.08;71.41
19884;BME280;10104;50.732;10.174;2023-02-20T13:33:29;98202.78;;;12.19;71.21
19884;BME280;10104;50.732;10.174;2023-02-20T13:35:55;98209.56;;;12.21;71.35
19884;BME280;10104;50.732;10.174;2023-02-20T13:38:19;98208.56;;;11.86;71.24
19884;BME280;10104;50.732;10.174;2023-02-20T13:40:43;98206.38;;;11.90;71.49
19884;BME280;10104;50.732;10.174;2023-02-20T13:45:46;98201.25;;;11.88;70.40
19884;BME280;10104;50.732;10.174;2023-02-20T13:50:49;98181.78;;;11.81;72.26
19884;BME280;10104;50.732;10.174;2023-02-20T13:53:10;98179.88;;;11.75;73.72
19884;BME280;10104;50.732;10.174;2023-02-20T13:55:32;98184.25;;;11.83;72.03
19884;BME280;10104;50.732;10.174;2023-02-20T13:58:14;98175.75;;;11.72;71.79
19884;BME280;10104;50.732;10.174;2023-02-20T14:00:53;98195.31;;;11.86;71.71
19884;BME280;10104;50.732;10.174;2023-02-20T14:03:24;98175.44;;;11.97;73.21
19884;BME280;10104;50.732;10.174;2023-02-20T14:06:01;98172.56;;;12.20;71.84
19884;BME280;10104;50.732;10.174;2023-02-20T14:08:23;98169.63;;;12.36;70.62
19884;BME280;10104;50.732;10.174;2023-02-20T14:10:45;98171.13;;;12.45;70.15
19884;BME280;10104;50.732;10.174;2023-02-20T14:13:21;98162.16;;;12.46;71.14